Time;durP1;ratioP1;P1;durP2;ratioP2;P2;SDS_P1;SDS_P2;PMS_P1;PMS_P2;Temp;Humidity;BMP_temperature;BMP_pressure;BME280_temperature;BME280_humidity;BME280_pressure;Samples;Min_cycle;Max_cycle;Signal;HPM_P1;HPM_P2
2022/03/23 00:02:27;;;;;;;;;;;;;;;25.47;34.19;95262.31;4961737;28;7084;-49
2022/03/23 00:04:57;;;;;;;;;;;;;;;25.48;34.35;95269.38;4961619;28;7910;-47
2022/03/23 00:07:23;;;;;;;;;;;;;;;25.46;34.36;95266.34;4954565;28;9261;-49
2022/03/23 00:09:50;;;;;;;;;;;;;;;25.46;33.72;95262.81;4971350;28;7296;-50
2022/03/23 00:12:16;;;;;;;;;;;;;;;25.46;34.02;95263.59;4962350;28;9239;-52
2022/03/23 00:14:42;;;;;;;;;;;;;;;25.45;34.20;95259.31;4963925;28;7222;-50
2022/03/23 00:17:08;;;;;;;;;;;;;;;25.42;34.09;95276.84;4971178;28;6989;-51
2022/03/23 00:19:34;;;;;;;;;;;;;;;25.43;34.13;95267.31;4955403;28;9071;-48
2022/03/23 00:22:01;;;;;;;;;;;;;;;25.43;33.97;95261.81;4956267;28;9053;-48
2022/03/23 00:24:32;;;;;;;;;;;;;;;25.39;33.93;95275.00;4957589;28;9257;-49
2022/03/23 00:27:00;;;;;;;;;;;;;;;25.41;34.38;95269.78;4963113;28;7449;-48
2022/03/23 00:29:26;;;;;;;;;;;;;;;25.40;34.37;95266.25;4941739;28;9068;-48
2022/03/23 00:31:53;;;;;;;;;;;;;;;25.41;34.38;95264.25;4951282;28;7841;-49
2022/03/23 00:34:19;;;;;;;;;;;;;;;25.40;33.91;95269.00;4955352;28;9606;-51
2022/03/23 00:36:50;;;;;;;;;;;;;;;25.39;33.60;95270.25;4968831;28;7690;-48
2022/03/23 00:39:16;;;;;;;;;;;;;;;25.37;34.21;95264.50;4971334;28;7143;-50
2022/03/23 00:41:49;;;;;;;;;;;;;;;25.38;34.23;95273.53;4962387;28;9232;-50
2022/03/23 00:44:16;;;;;;;;;;;;;;;25.37;33.98;95269.25;4969778;28;7483;-49
2022/03/23 00:46:42;;;;;;;;;;;;;;;25.37;33.54;95274.75;4969334;28;7482;-48
2022/03/23 00:49:09;;;;;;;;;;;;;;;25.36;34.26;95274.00;4970536;28;9103;-51
2022/03/23 00:51:35;;;;;;;;;;;;;;;25.37;33.65;95280.25;4957432;28;9273;-48
2022/03/23 00:54:04;;;;;;;;;;;;;;;25.36;33.55;95273.22;4958471;28;7246;-48
2022/03/23 00:56:30;;;;;;;;;;;;;;;25.34;33.62;95283.97;4978869;28;8047;-49
2022/03/23 00:58:56;;;;;;;;;;;;;;;25.34;33.90;95273.72;4951807;28;9187;-50
2022/03/23 01:01:22;;;;;;;;;;;;;;;25.33;33.63;95277.72;4957067;28;8752;-51
2022/03/23 01:03:48;;;;;;;;;;;;;;;25.33;33.32;95276.97;4948366;28;7269;-48
2022/03/23 01:06:15;;;;;;;;;;;;;;;25.33;33.98;95277.72;4967303;28;7283;-50
2022/03/23 01:08:41;;;;;;;;;;;;;;;25.33;34.02;95274.22;4953608;28;7124;-51
2022/03/23 01:11:10;;;;;;;;;;;;;;;25.33;33.66;95271.47;4960005;28;7821;-50
2022/03/23 01:13:41;;;;;;;;;;;;;;;25.31;33.54;95280.22;4949678;28;8822;-50
2022/03/23 01:16:09;;;;;;;;;;;;;;;25.27;34.05;95271.41;4953346;28;9525;-49
2022/03/23 01:18:35;;;;;;;;;;;;;;;25.29;33.52;95279.19;4964466;28;7070;-52
2022/03/23 01:21:01;;;;;;;;;;;;;;;25.31;33.60;95284.97;4970799;28;7047;-51
2022/03/23 01:23:27;;;;;;;;;;;;;;;25.27;34.11;95265.16;4955524;28;8843;-48
2022/03/23 01:25:53;;;;;;;;;;;;;;;25.29;33.97;95276.44;4953570;28;9397;-49
2022/03/23 01:28:19;;;;;;;;;;;;;;;25.30;33.88;95277.94;4963123;28;8208;-47
2022/03/23 01:30:47;;;;;;;;;;;;;;;25.28;33.97;95270.16;4958576;28;9545;-48
2022/03/23 01:33:13;;;;;;;;;;;;;;;25.27;33.77;95273.41;4952800;28;9210;-51
2022/03/23 01:35:39;;;;;;;;;;;;;;;25.28;33.50;95270.16;4958689;28;9529;-49
2022/03/23 01:38:10;;;;;;;;;;;;;;;25.29;34.18;95279.19;4951464;28;9961;-50
2022/03/23 01:40:37;;;;;;;;;;;;;;;25.27;33.93;95270.66;4967250;28;7339;-47
2022/03/23 01:43:04;;;;;;;;;;;;;;;25.27;33.65;95270.66;4951157;28;7336;-49
2022/03/23 01:45:30;;;;;;;;;;;;;;;25.25;34.05;95273.88;4959836;28;7835;-47
2022/03/23 01:47:56;;;;;;;;;;;;;;;25.28;33.45;95272.16;4972078;28;9109;-48
2022/03/23 01:50:24;;;;;;;;;;;;;;;25.23;33.42;95259.09;4959221;28;7251;-49
2022/03/23 01:52:50;;;;;;;;;;;;;;;25.25;34.08;95267.66;4954704;28;9486;-48
2022/03/23 01:55:17;;;;;;;;;;;;;;;25.25;33.42;95267.66;4968852;28;9204;-48
2022/03/23 01:57:45;;;;;;;;;;;;;;;25.24;33.91;95274.38;4961053;28;8723;-48
2022/03/23 02:00:12;;;;;;;;;;;;;;;25.24;33.21;95275.16;4960663;28;7337;-48
2022/03/23 02:02:41;;;;;;;;;;;;;;;25.25;33.44;95273.16;4939223;28;9431;-49
2022/03/23 02:05:07;;;;;;;;;;;;;;;25.21;33.91;95267.84;4953289;28;9211;-49
2022/03/23 02:07:33;;;;;;;;;;;;;;;25.22;33.40;95268.59;4969622;28;7455;-50
2022/03/23 02:09:59;;;;;;;;;;;;;;;25.21;33.35;95273.34;4976182;28;7054;-49
2022/03/23 02:12:30;;;;;;;;;;;;;;;25.21;33.66;95267.09;4958172;28;9080;-48
2022/03/23 02:15:08;;;;;;;;;;;;;;;25.20;33.51;95273.84;4950722;28;7269;-51
2022/03/23 02:17:34;;;;;;;;;;;;;;;25.19;33.73;95275.06;4969257;28;7326;-51
2022/03/23 02:20:01;;;;;;;;;;;;;;;25.20;33.99;95282.88;4953475;28;9609;-48
2022/03/23 02:22:31;;;;;;;;;;;;;;;25.19;33.50;95272.31;4972708;28;6989;-52
2022/03/23 02:24:58;;;;;;;;;;;;;;;25.18;33.78;95279.84;4951181;28;9390;-48
2022/03/23 02:27:36;;;;;;;;;;;;;;;25.14;33.77;95278.56;4962680;28;9062;-50
2022/03/23 02:30:11;;;;;;;;;;;;;;;25.16;33.44;95270.56;4954208;28;7935;-48
2022/03/23 02:32:39;;;;;;;;;;;;;;;25.16;33.94;95278.81;4972351;28;9659;-48
2022/03/23 02:35:07;;;;;;;;;;;;;;;25.15;34.03;95269.03;4954943;28;7065;-47
2022/03/23 02:37:43;;;;;;;;;;;;;;;25.16;33.88;95271.31;4972091;28;9148;-49
2022/03/23 02:40:13;;;;;;;;;;;;;;;25.10;33.55;95265.00;4954378;28;9549;-51
2022/03/23 02:42:40;;;;;;;;;;;;;;;25.14;33.64;95275.81;4962929;28;9029;-49
2022/03/23 02:45:14;;;;;;;;;;;;;;;25.14;33.49;95275.81;4955230;28;7661;-50
2022/03/23 02:47:47;;;;;;;;;;;;;;;25.13;33.55;95282.53;4952573;29;9050;-49
2022/03/23 02:50:20;;;;;;;;;;;;;;;25.14;33.76;95284.78;4963459;28;8820;-49
2022/03/23 03:03:59;;;;;;;;;;;;;;;25.10;33.54;95280.78;4976643;28;7325;-48
2022/03/23 03:06:25;;;;;;;;;;;;;;;25.09;33.93;95282.00;4951354;28;7009;-50
2022/03/23 03:08:53;;;;;;;;;;;;;;;25.10;33.10;95280.78;4970025;28;7253;-48
2022/03/23 03:11:20;;;;;;;;;;;;;;;25.09;33.23;95285.53;4942900;28;9087;-51
2022/03/23 03:13:49;;;;;;;;;;;;;;;25.11;33.79;95287.78;4960913;28;7268;-50
2022/03/23 03:16:19;;;;;;;;;;;;;;;25.10;33.39;95289.75;4961616;28;9516;-48
2022/03/23 03:18:47;;;;;;;;;;;;;;;25.10;33.20;95294.53;4956107;28;7152;-49
2022/03/23 03:21:15;;;;;;;;;;;;;;;25.10;33.46;95289.03;4955318;28;9065;-48
2022/03/23 03:23:43;;;;;;;;;;;;;;;25.11;33.27;95298.78;4956365;28;7234;-48
2022/03/23 03:26:13;;;;;;;;;;;;;;;25.09;33.07;95290.25;4958832;28;9710;-47
2022/03/23 03:28:42;;;;;;;;;;;;;;;25.11;32.77;95296.03;4963818;28;7286;-48
2022/03/23 03:31:13;;;;;;;;;;;;;;;25.10;33.07;95292.53;4965583;28;7314;-50
2022/03/23 03:33:40;;;;;;;;;;;;;;;25.10;33.47;95289.03;4962453;28;9340;-50
2022/03/23 03:36:06;;;;;;;;;;;;;;;25.05;32.90;95282.22;4967464;28;7910;-49
2022/03/23 03:38:33;;;;;;;;;;;;;;;25.08;32.98;95288.72;4944545;28;7454;-51
2022/03/23 03:41:02;;;;;;;;;;;;;;;25.07;33.08;95292.75;4954011;28;8862;-48
2022/03/23 03:43:29;;;;;;;;;;;;;;;25.05;33.23;95293.25;4974438;28;7528;-49
2022/03/23 03:45:54;;;;;;;;;;;;;;;25.08;32.78;95292.25;4972124;28;7303;-47
2022/03/23 03:48:21;;;;;;;;;;;;;;;25.07;33.51;95290.00;4959571;28;9022;-49
2022/03/23 03:50:49;;;;;;;;;;;;;;;25.03;33.37;95298.47;4959997;28;8774;-49
2022/03/23 03:53:17;;;;;;;;;;;;;;;25.06;33.37;95300.25;4975360;28;8992;-48
2022/03/23 03:55:44;;;;;;;;;;;;;;;25.05;33.02;95309.00;4963790;28;9402;-47
2022/03/23 03:58:12;;;;;;;;;;;;;;;25.04;33.70;95299.22;4967487;28;7027;-49
2022/03/23 04:00:41;;;;;;;;;;;;;;;25.04;33.13;95301.97;4957837;28;7539;-48
2022/03/23 04:03:10;;;;;;;;;;;;;;;25.05;33.35;95311.75;4972217;28;7246;-50
2022/03/23 04:05:36;;;;;;;;;;;;;;;25.03;33.23;95305.97;4952445;28;9387;-51
2022/03/23 04:08:02;;;;;;;;;;;;;;;25.00;33.28;95299.44;4954598;28;7250;-50
2022/03/23 04:10:28;;;;;;;;;;;;;;;25.01;33.37;95308.44;4971711;28;9097;-51
2022/03/23 04:12:59;;;;;;;;;;;;;;;25.02;32.83;95309.94;4956486;28;9086;-48
2022/03/23 04:15:26;;;;;;;;;;;;;;;25.01;32.72;95317.44;4959367;28;9489;-48
2022/03/23 04:17:54;;;;;;;;;;;;;;;25.00;33.29;95315.19;4971733;28;9042;-48
2022/03/23 04:20:22;;;;;;;;;;;;;;;24.99;33.34;95316.44;4970937;28;7235;-48
2022/03/23 04:22:49;;;;;;;;;;;;;;;24.97;33.40;95322.41;4970665;28;7242;-48
2022/03/23 04:25:17;;;;;;;;;;;;;;;24.98;33.38;95320.41;4955113;28;7065;-47
2022/03/23 04:27:50;;;;;;;;;;;;;;;24.98;33.66;95325.94;4956005;28;7053;-50
2022/03/23 04:30:37;;;;;;;;;;;;;;;24.98;33.15;95317.66;4965496;28;6989;-49
2022/03/23 04:33:11;;;;;;;;;;;;;;;24.96;33.19;95318.16;4963371;28;7064;-48
2022/03/23 04:35:39;;;;;;;;;;;;;;;24.97;33.09;95310.66;4955733;28;7258;-49
2022/03/23 04:38:06;;;;;;;;;;;;;;;24.95;32.99;95319.38;4966127;28;9053;-48
2022/03/23 04:40:32;;;;;;;;;;;;;;;24.97;32.82;95324.44;4963055;28;7275;-48
2022/03/23 04:42:58;;;;;;;;;;;;;;;24.96;32.99;95317.41;4970329;28;7195;-48
2022/03/23 04:45:25;;;;;;;;;;;;;;;24.97;33.10;95318.94;4972038;28;9290;-50
2022/03/23 04:47:52;;;;;;;;;;;;;;;24.96;32.72;95323.66;4959793;28;9395;-47
2022/03/23 04:50:22;;;;;;;;;;;;;;;24.94;33.20;95317.13;4953508;28;7536;-49
2022/03/23 04:52:52;;;;;;;;;;;;;;;24.93;32.85;95321.88;4971335;28;7168;-49
2022/03/23 04:55:18;;;;;;;;;;;;;;;24.94;32.75;95328.13;4978978;28;9402;-48
2022/03/23 04:57:48;;;;;;;;;;;;;;;24.91;33.14;95329.84;4970125;28;8310;-48
2022/03/23 05:00:16;;;;;;;;;;;;;;;24.90;33.11;95333.09;4968836;28;7274;-49
2022/03/23 05:02:44;;;;;;;;;;;;;;;24.88;33.61;95332.84;4955439;28;6995;-52
2022/03/23 05:05:12;;;;;;;;;;;;;;;24.90;33.13;95335.84;4952151;28;8711;-51
2022/03/23 05:07:42;;;;;;;;;;;;;;;24.89;32.82;95329.59;4955256;28;9381;-47
2022/03/23 05:10:12;;;;;;;;;;;;;;;24.89;33.06;95326.06;4953328;28;8803;-49
2022/03/23 05:12:49;;;;;;;;;;;;;;;24.88;33.46;95333.56;4955543;28;7052;-51
2022/03/23 05:15:16;;;;;;;;;;;;;;;24.83;33.00;95325.25;4955477;28;9878;-50
2022/03/23 05:17:45;;;;;;;;;;;;;;;24.84;32.80;95335.78;4941636;28;9039;-48
2022/03/23 05:20:14;;;;;;;;;;;;;;;24.85;32.68;95339.28;4954961;28;7151;-48
2022/03/23 05:22:45;;;;;;;;;;;;;;;24.86;32.95;95340.81;4959904;28;9491;-48
2022/03/23 05:25:13;;;;;;;;;;;;;;;24.85;33.08;95336.53;4961189;28;7576;-48
2022/03/23 05:27:40;;;;;;;;;;;;;;;24.85;32.85;95340.06;4947713;28;7612;-47
2022/03/23 05:30:10;;;;;;;;;;;;;;;24.86;33.06;95346.31;4953455;28;9198;-47
2022/03/23 05:32:37;;;;;;;;;;;;;;;24.83;33.09;95347.28;4964318;28;9171;-47
2022/03/23 05:35:04;;;;;;;;;;;;;;;24.84;32.84;95346.03;4949638;28;9085;-51
2022/03/23 05:37:30;;;;;;;;;;;;;;;24.83;32.60;95339.03;4953184;28;9087;-51
2022/03/23 05:40:05;;;;;;;;;;;;;;;24.80;32.83;95331.72;4957669;28;7969;-48
2022/03/23 05:42:33;;;;;;;;;;;;;;;24.79;33.17;95333.72;4953323;28;8786;-47
2022/03/23 05:45:06;;;;;;;;;;;;;;;24.81;32.99;95338.75;4953623;28;7063;-47
2022/03/23 05:47:41;;;;;;;;;;;;;;;24.81;33.31;95334.00;4953121;28;9414;-47
2022/03/23 05:50:09;;;;;;;;;;;;;;;24.81;33.06;95328.50;4957791;28;8418;-49
2022/03/23 05:52:37;;;;;;;;;;;;;;;24.81;33.14;95342.25;4971614;28;9321;-47
2022/03/23 05:55:07;;;;;;;;;;;;;;;24.83;33.11;95347.28;4956498;28;7151;-48
2022/03/23 05:57:34;;;;;;;;;;;;;;;24.82;37.55;95354.00;4969614;28;9769;-48
2022/03/23 06:00:00;;;;;;;;;;;;;;;24.81;33.46;95341.50;4955448;28;9406;-49
2022/03/23 06:02:26;;;;;;;;;;;;;;;24.83;33.49;95344.53;4960718;28;8943;-47
2022/03/23 06:04:57;;;;;;;;;;;;;;;24.82;32.71;95351.25;4960143;28;7269;-48
2022/03/23 06:07:23;;;;;;;;;;;;;;;24.80;33.12;95351.75;4954585;28;9420;-47
2022/03/23 06:09:49;;;;;;;;;;;;;;;24.78;32.60;95353.47;4952064;28;9429;-51
2022/03/23 06:12:15;;;;;;;;;;;;;;;24.78;32.72;95356.22;4955051;28;9283;-47
2022/03/23 06:14:44;;;;;;;;;;;;;;;24.77;32.05;95358.22;4959277;28;7119;-48
2022/03/23 06:17:21;;;;;;;;;;;;;;;24.77;31.81;95368.47;4947061;28;9164;-50
2022/03/23 06:19:54;;;;;;;;;;;;;;;24.70;32.34;95359.38;4948524;28;6976;-50
2022/03/23 06:22:20;;;;;;;;;;;;;;;24.74;32.40;95361.91;4954089;28;9490;-52
2022/03/23 06:25:11;;;;;;;;;;;;;;;24.73;32.27;95365.13;4951704;28;9339;-47
2022/03/23 06:27:44;;;;;;;;;;;;;;;24.74;31.57;95372.91;4962440;28;9473;-48
2022/03/23 06:30:20;;;;;;;;;;;;;;;24.73;31.74;95371.38;4957362;28;7058;-49
2022/03/23 06:32:56;;;;;;;;;;;;;;;24.72;32.34;95372.63;4959108;28;7948;-47
2022/03/23 06:35:23;;;;;;;;;;;;;;;24.73;32.00;95366.63;4957978;28;7854;-47
2022/03/23 06:37:57;;;;;;;;;;;;;;;24.75;32.32;95376.44;4962743;28;7354;-47
2022/03/23 06:40:24;;;;;;;;;;;;;;;24.73;33.68;95380.41;4970726;28;7512;-51
2022/03/23 06:42:56;;;;;;;;;;;;;;;24.71;33.06;95374.63;4960279;28;9106;-48
2022/03/23 06:45:29;;;;;;;;;;;;;;;24.73;33.08;95377.66;4959746;28;9139;-48
2022/03/23 06:48:03;;;;;;;;;;;;;;;24.74;32.71;95378.41;4963083;28;8822;-48
2022/03/23 06:50:30;;;;;;;;;;;;;;;24.73;32.62;95377.66;4952751;28;7503;-49
2022/03/23 06:53:25;;;;;;;;;;;;;;;24.70;32.63;95380.59;4974988;28;9128;-49
2022/03/23 06:55:51;;;;;;;;;;;;;;;24.73;32.18;95382.38;4899675;29;9129;-49
2022/03/23 06:58:17;;;;;;;;;;;;;;;24.72;32.02;95375.38;4909376;29;7452;-48
2022/03/23 07:00:46;;;;;;;;;;;;;;;24.72;32.20;95378.13;4902141;29;9358;-51
2022/03/23 07:03:26;;;;;;;;;;;;;;;24.71;31.70;95382.09;4897167;29;7032;-48
2022/03/23 07:05:52;;;;;;;;;;;;;;;24.70;31.80;95384.13;4921819;29;7069;-48
2022/03/23 07:11:42;;;;;;;;;;;;;;;24.66;30.79;95383.56;4844524;29;9381;-49
2022/03/23 07:14:08;;;;;;;;;;;;;;;24.65;29.92;95378.53;4838677;29;9425;-50
2022/03/23 07:16:34;;;;;;;;;;;;;;;24.65;30.27;95392.28;4836701;29;7395;-49
2022/03/23 07:19:00;;;;;;;;;;;;;;;24.64;30.46;95391.53;4835368;29;9502;-47
2022/03/23 07:21:26;;;;;;;;;;;;;;;24.64;30.11;95391.53;4836675;29;9016;-52
2022/03/23 07:23:52;;;;;;;;;;;;;;;24.63;30.63;95392.78;4836803;29;7174;-50
2022/03/23 07:26:19;;;;;;;;;;;;;;;24.61;30.47;95395.25;4828687;29;9163;-52
2022/03/23 07:28:45;;;;;;;;;;;;;;;24.61;30.85;95400.75;4842598;29;9200;-50
2022/03/23 07:31:11;;;;;;;;;;;;;;;24.60;30.78;95396.47;4846041;29;7836;-49
2022/03/23 07:33:37;;;;;;;;;;;;;;;24.64;30.88;95399.03;4883586;29;8781;-51
2022/03/23 07:36:04;;;;;;;;;;;;;;;24.63;31.26;95387.28;4893675;29;9051;-51
2022/03/23 07:38:44;;;;;;;;;;;;;;;24.66;31.17;95400.06;4885883;29;8769;-48
2022/03/23 07:41:18;;;;;;;;;;;;;;;24.64;31.24;95399.78;4900952;29;7003;-47
2022/03/23 07:43:55;;;;;;;;;;;;;;;24.65;31.38;95398.56;4896023;29;9424;-50
2022/03/23 07:46:22;;;;;;;;;;;;;;;24.65;31.42;95398.56;4883603;29;9117;-50
2022/03/23 07:48:50;;;;;;;;;;;;;;;24.65;31.26;95395.81;4952503;28;7004;-51
2022/03/23 07:51:16;;;;;;;;;;;;;;;24.64;31.23;95397.03;4965647;28;9068;-51
2022/03/23 07:53:44;;;;;;;;;;;;;;;24.66;31.33;95396.56;4974106;28;7455;-52
2022/03/23 07:56:10;;;;;;;;;;;;;;;24.66;31.38;95393.81;4957897;28;9350;-48
2022/03/23 07:58:36;;;;;;;;;;;;;;;24.65;31.83;95384.81;4968654;28;9381;-51
2022/03/23 08:01:04;;;;;;;;;;;;;;;24.67;31.79;95385.06;4961130;28;7947;-50
2022/03/23 08:03:36;;;;;;;;;;;;;;;24.67;31.41;95385.06;4970626;28;7323;-48
2022/03/23 08:06:09;;;;;;;;;;;;;;;24.66;32.02;95383.56;4977476;28;8760;-51
2022/03/23 08:08:36;;;;;;;;;;;;;;;24.69;32.08;95387.34;4942695;28;9175;-51
2022/03/23 08:11:03;;;;;;;;;;;;;;;24.69;31.89;95385.34;4971755;28;9139;-51
2022/03/23 08:13:29;;;;;;;;;;;;;;;24.68;31.95;95381.06;4967156;28;7526;-48
2022/03/23 08:15:55;;;;;;;;;;;;;;;24.72;32.28;95386.38;4971502;28;7112;-49
2022/03/23 08:18:27;;;;;;;;;;;;;;;24.72;31.87;95389.13;4974041;28;7269;-51
2022/03/23 08:21:11;;;;;;;;;;;;;;;24.72;31.71;95389.13;4956680;28;9073;-49
2022/03/23 08:23:40;;;;;;;;;;;;;;;24.73;32.07;95387.88;4956974;28;8805;-52
2022/03/23 08:26:14;;;;;;;;;;;;;;;24.72;32.38;95391.88;4957663;28;7506;-47
2022/03/23 08:28:46;;;;;;;;;;;;;;;24.73;32.04;95390.63;4963882;28;7268;-49
2022/03/23 08:31:16;;;;;;;;;;;;;;;24.74;32.02;95394.91;4969759;28;9122;-48
2022/03/23 08:33:43;;;;;;;;;;;;;;;24.73;31.88;95384.41;4956014;28;7637;-53
2022/03/23 08:36:13;;;;;;;;;;;;;;;24.73;32.41;95388.66;4955626;28;9252;-49
2022/03/23 08:38:43;;;;;;;;;;;;;;;24.75;32.00;95395.72;4970475;28;9066;-51
2022/03/23 08:41:09;;;;;;;;;;;;;;;24.73;32.43;95389.91;4959679;28;8996;-52
2022/03/23 08:43:38;;;;;;;;;;;;;;;24.73;32.33;95394.16;4958581;28;8876;-53
2022/03/23 08:46:05;;;;;;;;;;;;;;;24.75;32.02;95393.69;4960605;28;8881;-50
2022/03/23 08:48:34;;;;;;;;;;;;;;;24.75;32.32;95393.69;4957494;28;9050;-53
2022/03/23 08:51:00;;;;;;;;;;;;;;;24.76;32.50;95386.19;4954373;28;9159;-50
2022/03/23 08:53:27;;;;;;;;;;;;;;;24.77;32.37;95387.72;4969528;28;7156;-51
2022/03/23 08:55:53;;;;;;;;;;;;;;;24.75;32.62;95381.94;4970901;28;8910;-52
2022/03/23 08:58:19;;;;;;;;;;;;;;;24.78;32.53;95383.72;4961228;28;9509;-52
2022/03/23 09:00:45;;;;;;;;;;;;;;;24.77;32.80;95394.00;4952221;28;9103;-51
2022/03/23 09:03:11;;;;;;;;;;;;;;;24.78;32.39;95391.97;4956613;28;9422;-48
2022/03/23 09:05:42;;;;;;;;;;;;;;;24.78;32.18;95394.72;4954693;28;6982;-50
2022/03/23 09:08:08;;;;;;;;;;;;;;;24.78;32.44;95384.47;4971591;28;7418;-52
2022/03/23 09:10:34;;;;;;;;;;;;;;;24.78;32.35;95390.00;4951331;28;9077;-52
2022/03/23 09:13:01;;;;;;;;;;;;;;;24.79;32.50;95386.00;4967293;28;9502;-52
2022/03/23 09:15:31;;;;;;;;;;;;;;;24.80;32.94;95384.00;4970631;28;7273;-52
2022/03/23 09:18:03;;;;;;;;;;;;;;;24.80;32.91;95381.25;4958947;28;7355;-49
2022/03/23 09:20:29;;;;;;;;;;;;;;;24.80;32.77;95393.00;4926074;28;9099;-51
2022/03/23 09:22:59;;;;;;;;;;;;;;;24.81;32.78;95383.53;4954559;28;9456;-49
2022/03/23 09:25:26;;;;;;;;;;;;;;;24.82;32.51;95379.53;4965642;28;9566;-51
2022/03/23 09:27:55;;;;;;;;;;;;;;;24.81;32.45;95378.03;4960303;28;7493;-52
2022/03/23 09:30:26;;;;;;;;;;;;;;;24.82;33.03;95382.28;4969013;28;7058;-52
2022/03/23 09:32:54;;;;;;;;;;;;;;;24.82;32.99;95389.78;4972388;28;9086;-49
2022/03/23 09:35:20;;;;;;;;;;;;;;;24.81;33.30;95388.28;4957478;28;9427;-51
2022/03/23 09:37:53;;;;;;;;;;;;;;;24.81;33.04;95382.78;4956570;28;8754;-50
2022/03/23 09:40:30;;;;;;;;;;;;;;;24.82;33.15;95378.75;4959994;28;8979;-52
2022/03/23 09:43:30;;;;;;;;;;;;;;;24.83;33.13;95383.03;4955943;28;9161;-53
2022/03/23 09:45:57;;;;;;;;;;;;;;;24.82;32.86;95382.28;4881443;29;7109;-51
2022/03/23 09:48:36;;;;;;;;;;;;;;;24.82;33.16;95379.53;4903424;29;9435;-52
2022/03/23 09:51:02;;;;;;;;;;;;;;;24.82;32.76;95367.75;4913959;29;7337;-52
2022/03/23 09:53:38;;;;;;;;;;;;;;;24.83;33.09;95370.03;4889423;29;9434;-50
2022/03/23 09:56:04;;;;;;;;;;;;;;;24.84;33.33;95376.31;4895664;29;7913;-51
2022/03/23 09:58:30;;;;;;;;;;;;;;;24.83;32.99;95369.28;4911864;29;7150;-51
2022/03/23 10:00:59;;;;;;;;;;;;;;;24.85;32.96;95366.81;4888977;29;9016;-49
2022/03/23 10:04:02;;;;;;;;;;;;;;;24.87;32.94;95370.59;4911756;29;8764;-50
2022/03/23 10:10:36;;;;;;;;;;;;;;;24.90;33.17;95366.88;4909376;29;9358;-51
2022/03/23 10:13:58;;;;;;;;;;;;;;;24.91;33.55;95364.88;4913143;29;9043;-53
2022/03/23 10:16:47;;;;;;;;;;;;;;;24.91;33.17;95364.88;4911514;29;7239;-49
2022/03/23 10:19:15;;;;;;;;;;;;;;;24.91;33.09;95367.63;4893451;29;9173;-52
2022/03/23 10:21:42;;;;;;;;;;;;;;;24.92;33.01;95360.88;4923504;28;9159;-50
2022/03/23 10:24:13;;;;;;;;;;;;;;;24.91;33.43;95360.13;4954171;28;7357;-49
2022/03/23 10:26:49;;;;;;;;;;;;;;;24.95;33.41;95360.66;4971008;28;7095;-51
2022/03/23 10:29:48;;;;;;;;;;;;;;;24.96;32.85;95350.44;4975922;28;7427;-52
2022/03/23 10:32:44;;;;;;;;;;;;;;;24.95;33.24;95349.66;4963504;28;8941;-52
2022/03/23 10:35:16;;;;;;;;;;;;;;;24.96;33.88;95355.94;4953095;28;7261;-52
2022/03/23 10:37:44;;;;;;;;;;;;;;;24.97;33.90;95349.19;4962791;28;9059;-52
2022/03/23 10:40:20;;;;;;;;;;;;;;;24.99;33.71;95357.72;4965822;28;7111;-52
2022/03/23 10:42:53;;;;;;;;;;;;;;;24.98;33.37;95353.44;4968252;28;9246;-50
2022/03/23 10:45:21;;;;;;;;;;;;;;;25.02;33.19;95348.47;4950068;28;7036;-50
2022/03/23 10:47:49;;;;;;;;;;;;;;;25.03;33.47;95350.00;4955004;28;9366;-50
2022/03/23 10:50:19;;;;;;;;;;;;;;;25.03;33.15;95350.00;4962980;28;7492;-52
2022/03/23 10:52:58;;;;;;;;;;;;;;;25.02;33.61;95349.25;4950244;28;7250;-52
2022/03/23 10:55:29;;;;;;;;;;;;;;;25.00;33.43;95346.22;4951524;28;9327;-52
2022/03/23 10:58:02;;;;;;;;;;;;;;;25.01;33.86;95338.72;4958423;28;9155;-53
2022/03/23 11:00:32;;;;;;;;;;;;;;;24.98;33.58;95334.94;4954044;28;9781;-52
2022/03/23 11:03:00;;;;;;;;;;;;;;;24.96;33.50;95328.41;4947529;28;9171;-51
2022/03/23 11:05:33;;;;;;;;;;;;;;;24.99;34.00;95341.94;4949302;28;9118;-53
2022/03/23 11:08:08;;;;;;;;;;;;;;;24.97;34.09;95340.94;4959434;28;7236;-53
2022/03/23 11:16:27;;;;;;;;;;;;;;;24.98;34.42;95325.94;4966554;28;7246;-54
2022/03/23 11:19:11;;;;;;;;;;;;;;;24.96;34.89;95328.41;4956261;28;9098;-53
2022/03/23 11:22:17;;;;;;;;;;;;;;;25.00;34.44;95329.72;4954987;28;8700;-52
2022/03/23 11:24:47;;;;;;;;;;;;;;;25.03;34.49;95319.72;4972834;28;7062;-54
2022/03/23 11:27:19;;;;;;;;;;;;;;;25.06;34.16;95327.00;4944354;28;9121;-52
2022/03/23 11:29:49;;;;;;;;;;;;;;;25.08;34.59;95328.03;4954373;28;9112;-50
2022/03/23 11:32:28;;;;;;;;;;;;;;;25.11;34.43;95320.81;4966089;28;7316;-52
2022/03/23 11:34:56;;;;;;;;;;;;;;;25.14;34.95;95314.34;4959533;28;6978;-51
2022/03/23 11:37:29;;;;;;;;;;;;;;;25.14;34.52;95306.81;4952382;28;8335;-54
2022/03/23 11:39:56;;;;;;;;;;;;;;;25.15;34.96;95313.84;4967089;28;8937;-51
2022/03/23 11:42:26;;;;;;;;;;;;;;;25.16;34.71;95309.09;4967586;28;9074;-53
2022/03/23 11:44:52;;;;;;;;;;;;;;;25.16;34.66;95298.09;4954041;28;7036;-53
2022/03/23 11:47:39;;;;;;;;;;;;;;;25.19;34.72;95297.88;4957099;28;7588;-52
2022/03/23 11:50:28;;;;;;;;;;;;;;;25.21;34.65;95294.63;4957513;28;8795;-53
2022/03/23 11:53:31;;;;;;;;;;;;;;;25.22;35.03;95290.63;4951745;28;9132;-53
2022/03/23 11:56:02;;;;;;;;;;;;;;;25.24;34.58;95297.16;4970519;28;9108;-53
2022/03/23 11:58:37;;;;;;;;;;;;;;;25.26;34.84;95288.41;4955850;28;7244;-53
2022/03/23 12:01:14;;;;;;;;;;;;;;;25.29;34.88;95284.69;4953275;28;9122;-52
2022/03/23 12:03:53;;;;;;;;;;;;;;;25.31;35.36;95287.72;4970579;28;7277;-52
2022/03/23 12:06:35;;;;;;;;;;;;;;;25.31;35.03;95277.47;4953232;28;9086;-52
2022/03/23 12:09:32;;;;;;;;;;;;;;;25.34;35.16;95279.22;4958375;28;7223;-52
2022/03/23 12:12:28;;;;;;;;;;;;;;;25.36;34.97;95267.72;4971836;28;7562;-52
2022/03/23 12:15:19;;;;;;;;;;;;;;;25.37;34.61;95263.72;4954273;28;9231;-52
2022/03/23 12:18:06;;;;;;;;;;;;;;;25.38;35.10;95265.25;4951713;28;9096;-52
2022/03/23 12:20:48;;;;;;;;;;;;;;;25.39;34.60;95250.22;4956914;28;7087;-53
2022/03/23 12:23:36;;;;;;;;;;;;;;;25.39;34.59;95250.22;4965165;28;9259;-52
2022/03/23 12:26:46;;;;;;;;;;;;;;;25.39;32.89;95250.22;4958539;28;9182;-52
2022/03/23 12:29:28;;;;;;;;;;;;;;;25.39;33.13;95236.47;4952755;28;9516;-51
2022/03/23 12:32:08;;;;;;;;;;;;;;;25.38;32.37;95232.22;4952678;28;8940;-52
2022/03/23 12:34:45;;;;;;;;;;;;;;;25.35;32.65;95233.94;4959840;28;9195;-52
2022/03/23 12:37:16;;;;;;;;;;;;;;;25.34;31.57;95231.66;4972087;28;9051;-53
2022/03/23 12:39:53;;;;;;;;;;;;;;;25.33;31.88;95230.16;4956461;28;7004;-53
2022/03/23 12:42:31;;;;;;;;;;;;;;;25.37;30.86;95231.44;4972771;28;9716;-51
2022/03/23 12:45:05;;;;;;;;;;;;;;;25.39;30.64;95223.44;4971350;28;7343;-53
2022/03/23 12:47:34;;;;;;;;;;;;;;;25.41;30.94;95226.47;4969188;28;9654;-53
2022/03/23 12:58:34;;;;;;;;;;;;;;;25.48;31.64;95219.03;4974391;28;7241;-51
2022/03/23 13:01:13;;;;;;;;;;;;;;;25.47;31.25;95207.25;4956759;28;7247;-52
2022/03/23 13:03:47;;;;;;;;;;;;;;;25.47;31.24;95207.25;4974641;28;7247;-50
2022/03/23 13:06:32;;;;;;;;;;;;;;;25.48;31.37;95208.75;4964188;28;7457;-52
2022/03/23 13:09:01;;;;;;;;;;;;;;;25.48;31.49;95208.75;4947172;28;7262;-50
2022/03/23 13:11:33;;;;;;;;;;;;;;;25.45;31.50;95193.22;4962982;28;8814;-53
2022/03/23 13:14:06;;;;;;;;;;;;;;;25.47;31.48;95201.00;4959804;28;9100;-52
2022/03/23 13:17:03;;;;;;;;;;;;;;;25.46;31.31;95194.72;4973039;28;7420;-52
2022/03/23 13:19:35;;;;;;;;;;;;;;;25.45;32.08;95193.22;4950948;28;7495;-53
2022/03/23 13:22:40;;;;;;;;;;;;;;;25.47;31.68;95192.75;4952536;28;9179;-53
2022/03/23 13:25:30;;;;;;;;;;;;;;;25.48;32.43;95189.50;4895140;29;9262;-50
2022/03/23 13:27:56;;;;;;;;;;;;;;;25.50;32.06;95186.22;4889534;29;7210;-51
2022/03/23 13:30:28;;;;;;;;;;;;;;;25.50;32.48;95184.25;4897539;29;9025;-51
2022/03/23 13:32:58;;;;;;;;;;;;;;;25.50;32.03;95180.72;4904492;29;9266;-52
2022/03/23 13:35:26;;;;;;;;;;;;;;;25.52;32.77;95181.75;4897692;29;9105;-52
2022/03/23 13:38:05;;;;;;;;;;;;;;;25.53;32.35;95174.25;4879827;29;9419;-52
2022/03/23 13:43:34;;;;;;;;;;;;;;;25.65;32.77;95171.06;4897320;29;8406;-53
2022/03/23 13:46:01;;;;;;;;;;;;;;;25.64;32.11;95169.56;4899370;29;9183;-50
2022/03/23 13:48:33;;;;;;;;;;;;;;;25.70;32.72;95170.34;4901879;29;9124;-52
2022/03/23 13:51:00;;;;;;;;;;;;;;;25.72;32.42;95162.34;4892113;29;9101;-53
2022/03/23 13:53:26;;;;;;;;;;;;;;;25.75;32.51;95155.81;4901105;29;7308;-53
2022/03/23 13:55:55;;;;;;;;;;;;;;;25.76;32.58;95159.34;4902287;29;7250;-52